createdAt,value
2018-04-25T00:09:09.127Z,16
2018-04-25T00:19:09.214Z,16
2018-04-25T00:29:09.196Z,16
2018-04-25T00:39:10.013Z,17
2018-04-25T00:49:09.206Z,15
2018-04-25T00:59:09.281Z,15
2018-04-25T01:09:09.320Z,18
2018-04-25T01:19:09.270Z,15
2018-04-25T01:29:09.384Z,18
2018-04-25T01:39:09.640Z,17
2018-04-25T01:49:09.323Z,17
2018-04-25T01:59:09.349Z,16
2018-04-25T02:09:09.645Z,16
2018-04-25T02:19:09.339Z,15
2018-04-25T02:29:09.455Z,14
2018-04-25T02:39:09.398Z,12
2018-04-25T02:49:09.321Z,12
2018-04-25T02:59:09.337Z,12
2018-04-25T03:09:09.427Z,10
2018-04-25T03:19:09.400Z,11
2018-04-25T03:29:09.401Z,11
2018-04-25T03:39:09.407Z,11
2018-04-25T03:49:09.433Z,11
2018-04-25T03:59:09.507Z,11
2018-04-25T04:09:09.478Z,11
2018-04-25T04:19:09.412Z,11
2018-04-25T04:29:09.475Z,11
2018-04-25T04:39:09.424Z,9
2018-04-25T04:49:09.458Z,6
2018-04-25T04:59:09.575Z,7
2018-04-25T05:09:09.465Z,8
2018-04-25T05:19:09.475Z,5
2018-04-25T05:29:09.523Z,6
2018-04-25T05:39:09.552Z,6
2018-04-25T05:49:09.553Z,4
2018-04-25T05:59:09.608Z,5
2018-04-25T06:09:09.576Z,2
2018-04-25T06:19:09.546Z,2
2018-04-25T06:29:09.534Z,2
2018-04-25T06:39:09.659Z,3
2018-04-25T06:49:09.709Z,3
2018-04-25T06:59:09.679Z,3
2018-04-25T07:09:09.682Z,3
2018-04-25T07:19:10.773Z,3
2018-04-25T07:29:09.590Z,4
2018-04-25T07:39:10.162Z,4
2018-04-25T07:49:09.628Z,4
2018-04-25T07:59:09.589Z,5
2018-04-25T08:09:15.456Z,5
2018-04-25T08:19:09.682Z,5
2018-04-25T08:29:09.687Z,5
2018-04-25T08:39:09.799Z,4
2018-04-25T08:49:09.725Z,2
2018-04-25T08:59:09.802Z,3
2018-04-25T09:09:09.756Z,2
2018-04-25T09:19:09.664Z,2
2018-04-25T09:29:09.619Z,2
2018-04-25T09:39:09.695Z,2
2018-04-25T09:49:09.658Z,2
2018-04-25T09:59:10.428Z,2
2018-04-25T10:09:09.665Z,2
2018-04-25T10:19:10.150Z,2
2018-04-25T10:29:09.739Z,2
2018-04-25T10:39:09.767Z,2
2018-04-25T10:49:09.742Z,2
2018-04-25T10:59:09.740Z,2
2018-04-25T11:09:11.177Z,2
2018-04-25T11:19:09.656Z,3
2018-04-25T11:29:09.833Z,3
2018-04-25T11:39:09.769Z,3
2018-04-25T11:49:09.751Z,2
2018-04-25T11:59:10.476Z,3
2018-04-25T12:09:09.818Z,2
2018-04-25T12:19:09.955Z,2
2018-04-25T12:29:09.806Z,3
2018-04-25T12:39:09.873Z,2
2018-04-25T12:49:09.788Z,3
2018-04-25T12:59:09.806Z,3
2018-04-25T13:09:09.816Z,4
2018-04-25T13:19:09.691Z,4
2018-04-25T13:29:09.733Z,4
2018-04-25T13:39:09.819Z,6
2018-04-25T13:49:09.749Z,5
2018-04-25T13:59:09.794Z,5
2018-04-25T14:09:09.737Z,6
2018-04-25T14:19:09.774Z,6
2018-04-25T14:29:09.957Z,5
2018-04-25T14:39:09.822Z,5
2018-04-25T14:49:09.943Z,5
2018-04-25T15:00:40.902Z,5
2018-04-25T15:09:10.333Z,5
2018-04-25T15:19:09.929Z,5
2018-04-25T15:29:09.808Z,5
2018-04-25T15:39:09.742Z,5
2018-04-25T15:49:09.655Z,4
2018-04-25T15:59:10.007Z,5
2018-04-25T16:09:09.686Z,5
2018-04-25T16:19:09.811Z,3
2018-04-25T16:29:09.743Z,3
2018-04-25T16:39:09.764Z,2
2018-04-25T16:49:09.717Z,3
2018-04-25T16:59:09.730Z,2
2018-04-25T17:09:09.973Z,2
2018-04-25T17:19:10.479Z,2
2018-04-25T17:29:09.694Z,3
2018-04-25T17:39:09.727Z,2
2018-04-25T17:49:09.759Z,2
2018-04-25T17:59:10.024Z,2
2018-04-25T18:09:09.861Z,2
2018-04-25T18:19:09.765Z,3
2018-04-25T18:29:10.091Z,3
2018-04-25T18:39:10.025Z,3
2018-04-25T18:49:09.836Z,2
2018-04-25T18:59:09.793Z,2
2018-04-25T19:09:09.752Z,3
2018-04-25T19:19:09.771Z,3
2018-04-25T19:29:32.862Z,3
2018-04-25T19:39:09.957Z,2
2018-04-25T19:49:10.232Z,4
2018-04-25T19:59:09.851Z,4
2018-04-25T20:09:09.840Z,5
2018-04-25T20:19:09.821Z,5
2018-04-25T20:29:10.230Z,4
2018-04-25T20:39:10.713Z,4
2018-04-25T20:49:10.323Z,3
2018-04-25T20:59:10.199Z,4
2018-04-25T21:10:40.553Z,5
2018-04-25T21:19:50.021Z,4
2018-04-25T21:29:24.909Z,4
2018-04-25T21:40:04.366Z,5
2018-04-25T21:49:28.369Z,3
2018-04-25T21:59:26.567Z,3
2018-04-25T22:09:53.941Z,3
2018-04-25T22:19:25.093Z,2
2018-04-25T22:29:24.522Z,3
2018-04-25T22:39:25.123Z,4
2018-04-25T22:49:25.503Z,3
2018-04-25T22:59:27.115Z,3
2018-04-25T23:09:24.494Z,4
2018-04-25T23:19:23.732Z,5
2018-04-25T23:29:24.168Z,5
2018-04-25T23:39:24.191Z,4
2018-04-25T23:49:28.137Z,4
2018-04-25T23:59:24.769Z,3
